createdAt,value
2019-05-09T01:57:03.530Z,84.16
2019-05-09T01:59:34.061Z,83.96
2019-05-09T02:02:08.719Z,83.46
2019-05-09T02:04:35.381Z,83.36
2019-05-09T02:07:05.335Z,83.16
2019-05-09T02:09:34.629Z,83.23
2019-05-09T02:12:04.394Z,83.21
2019-05-09T02:14:40.233Z,82.94
2019-05-09T02:17:33.479Z,83.01
2019-05-09T02:20:03.956Z,83.35
2019-05-09T02:22:37.255Z,83.61
2019-05-09T02:25:07.764Z,83.30
2019-05-09T02:27:37.367Z,83.49
2019-05-09T02:30:08.628Z,83.49
2019-05-09T02:32:38.170Z,83.45
2019-05-09T02:35:08.585Z,83.54
2019-05-09T02:37:38.851Z,84.00
2019-05-09T02:40:10.248Z,84.02
2019-05-09T02:42:40.184Z,83.94
2019-05-09T02:45:10.219Z,83.74
2019-05-09T02:47:39.382Z,83.90
2019-05-09T02:50:09.969Z,83.96
2019-05-09T02:52:39.978Z,83.93
2019-05-09T02:55:10.329Z,83.86
2019-05-09T02:57:39.967Z,84.08
2019-05-09T03:00:39.656Z,84.13
2019-05-09T03:03:19.789Z,84.23
2019-05-09T03:05:48.887Z,84.46
2019-05-09T03:08:19.162Z,84.66
2019-05-09T03:10:49.473Z,84.50
2019-05-09T03:13:19.649Z,84.40
2019-05-09T03:15:50.633Z,84.77
2019-05-09T03:18:19.885Z,84.54
2019-05-09T03:21:15.201Z,84.68
2019-05-09T03:23:44.746Z,84.63
2019-05-09T03:26:19.392Z,84.79
2019-05-09T03:28:59.990Z,84.58
2019-05-09T03:31:30.806Z,84.57
2019-05-09T03:34:00.046Z,84.72
2019-05-09T03:36:29.617Z,84.50
2019-05-09T03:38:59.393Z,84.72
2019-05-09T03:41:28.777Z,84.67
2019-05-09T03:43:58.697Z,85.08
2019-05-09T03:46:42.868Z,84.99
2019-05-09T03:49:12.344Z,85.04
2019-05-09T03:51:42.316Z,85.03
2019-05-09T03:54:12.198Z,84.97
2019-05-09T03:56:45.423Z,84.79
2019-05-09T03:59:14.554Z,84.94
2019-05-09T04:01:46.773Z,85.04
2019-05-09T04:04:14.416Z,84.77
2019-05-09T04:06:44.138Z,84.85
2019-05-09T04:09:13.441Z,84.83
2019-05-09T04:11:42.977Z,84.55
2019-05-09T04:14:17.543Z,84.58
2019-05-09T04:16:48.251Z,84.67
2019-05-09T04:19:17.644Z,84.63
2019-05-09T04:21:48.438Z,84.83
2019-05-09T04:24:32.768Z,84.73
2019-05-09T04:30:11.753Z,84.63
2019-05-09T04:32:41.249Z,84.80
2019-05-09T04:35:11.136Z,84.65
2019-05-09T04:37:41.058Z,84.37
2019-05-09T04:40:11.031Z,84.14
2019-05-09T04:42:44.442Z,84.14
2019-05-09T04:48:40.621Z,84.71
2019-05-09T04:51:09.696Z,84.84
2019-05-09T04:53:39.888Z,84.65
2019-05-09T04:56:20.613Z,84.32
2019-05-09T04:58:50.124Z,83.99
2019-05-09T05:01:28.210Z,83.93
2019-05-09T05:03:57.543Z,84.39
2019-05-09T05:06:28.082Z,84.02
2019-05-09T05:08:58.702Z,83.75
2019-05-09T05:11:28.105Z,83.96
2019-05-09T05:13:58.626Z,83.94
2019-05-09T05:16:28.357Z,83.76
2019-05-09T05:18:58.506Z,83.60
2019-05-09T05:21:30.115Z,83.86
2019-05-09T05:26:52.793Z,84.03
2019-05-09T05:29:21.927Z,84.25
2019-05-09T05:31:52.398Z,83.90
2019-05-09T05:34:57.301Z,84.01
2019-05-09T05:37:28.059Z,84.10
2019-05-09T05:39:58.296Z,84.38
2019-05-09T05:42:28.337Z,84.46
2019-05-09T05:44:58.279Z,84.63
2019-05-09T05:47:37.992Z,84.68
2019-05-09T05:50:08.402Z,84.53
2019-05-09T05:52:37.764Z,84.45
2019-05-09T05:55:10.031Z,84.47
2019-05-09T05:57:39.860Z,84.50
2019-05-09T06:00:10.707Z,84.78
2019-05-09T06:02:42.425Z,84.54
2019-05-09T06:05:11.774Z,84.29
2019-05-09T06:07:40.825Z,84.23
2019-05-09T06:10:10.257Z,84.16
2019-05-09T06:12:39.681Z,83.86
2019-05-09T06:15:09.962Z,84.02
2019-05-09T06:17:40.519Z,84.31
2019-05-09T06:20:11.154Z,85.01
2019-05-09T06:22:41.052Z,84.62
2019-05-09T06:25:10.831Z,83.86
2019-05-09T06:27:42.427Z,83.52
2019-05-09T06:30:12.854Z,84.44
2019-05-09T06:32:47.697Z,84.15
2019-05-09T06:35:23.630Z,83.89
2019-05-09T06:37:53.643Z,83.62
2019-05-09T06:40:24.410Z,83.64
2019-05-09T06:42:58.957Z,84.24
2019-05-09T06:46:04.148Z,83.74
2019-05-09T06:48:37.643Z,83.55
2019-05-09T06:51:18.077Z,84.62
2019-05-09T06:56:39.590Z,84.41
2019-05-09T06:59:08.852Z,84.34
2019-05-09T07:01:48.231Z,83.90
2019-05-09T07:13:48.561Z,84.86
2019-05-09T07:16:54.441Z,84.93
2019-05-09T07:20:08.654Z,84.37
2019-05-09T07:22:47.955Z,84.50
2019-05-09T07:25:23.223Z,84.47
2019-05-09T07:27:54.754Z,83.85
2019-05-09T07:30:43.743Z,83.33
2019-05-09T07:33:39.650Z,83.83
2019-05-09T07:36:27.816Z,84.50
2019-05-09T07:38:58.347Z,84.58
2019-05-09T07:41:28.290Z,84.13
2019-05-09T07:43:58.438Z,84.31
2019-05-09T07:46:35.543Z,83.95
2019-05-09T07:49:08.561Z,83.59
2019-05-09T07:51:37.558Z,83.46
2019-05-09T07:54:21.144Z,83.40
2019-05-09T07:56:38.021Z,83.64
2019-05-09T07:59:07.631Z,83.75
2019-05-09T08:01:38.457Z,83.93
2019-05-09T08:04:07.741Z,83.54
2019-05-09T08:16:59.219Z,83.60
2019-05-09T08:19:29.775Z,83.51
2019-05-09T08:21:59.522Z,83.48
2019-05-09T08:24:31.912Z,83.78
2019-05-09T08:27:01.362Z,83.63
2019-05-09T08:29:31.012Z,83.37
2019-05-09T08:32:00.255Z,83.84
2019-05-09T08:34:29.663Z,83.91
2019-05-09T08:37:18.842Z,83.57
2019-05-09T08:39:53.203Z,83.81
2019-05-09T08:42:26.409Z,84.29
2019-05-09T08:44:57.789Z,83.37
2019-05-09T08:47:38.215Z,83.12
2019-05-09T08:50:18.099Z,82.57
2019-05-09T08:52:49.075Z,83.06
2019-05-09T08:55:18.515Z,82.68
2019-05-09T08:57:49.475Z,82.29
